Redondo Beach, Washington
Current Conditions -  °F | °C
As of 10:53 PM on Wednesday 22 Oct 2014 (Local Time) from KSEA Reporting Station
Broken Clouds Broken Clouds  
Wind Chill: 57°   Ceiling: 11000
Heat Index: 57°   Visibility: 10mi
Dew Point: 50°   Wind: 16mph
Humidity: 77%   Direction: 190°S
Pressure: 29.69"   Gusts: 24mph
Location:  47.4036°N, 122.309°W
Report Text: KSEA 230553Z 19014G21KT 10SM FEW060 BKN110 14/10 A2969 RMK AO2 SLP061 60011 T01390100 10139 20128 53038
Loading
Personal Weather Stations






























Interactive Weather Map
Tropical Storm Tracking
New forecast layout! Learn more

10-Day Weather Forecast

Advertisements
Track Severe Weather on mobile